Time;durP1;ratioP1;P1;durP2;ratioP2;P2;SDS_P1;SDS_P2;PMS_P1;PMS_P2;Temp;Humidity;BMP_temperature;BMP_pressure;BME280_temperature;BME280_humidity;BME280_pressure;Samples;Min_cycle;Max_cycle;Signal;HPM_P1;HPM_P2
2023/05/12 00:01:24;;;;;;;1.10;1.00;;;22.50;50.50;;;;;;5065331;28;20306;-66
2023/05/12 00:03:52;;;;;;;1.63;1.20;;;22.50;50.50;;;;;;5062275;28;20024;-65
2023/05/12 00:06:19;;;;;;;1.33;0.98;;;22.50;50.50;;;;;;5041766;28;20051;-62
2023/05/12 00:08:45;;;;;;;2.00;1.35;;;22.50;50.50;;;;;;5043342;28;20154;-64
2023/05/12 00:11:11;;;;;;;1.10;1.00;;;22.50;51.10;;;;;;5059450;28;20430;-64
2023/05/12 00:13:36;;;;;;;1.30;1.20;;;22.50;50.50;;;;;;5054166;28;20056;-65
2023/05/12 00:16:03;;;;;;;1.30;0.82;;;22.40;50.50;;;;;;5063305;28;20074;-64
2023/05/12 00:18:29;;;;;;;2.20;1.20;;;22.50;50.50;;;;;;5055826;28;20143;-63
2023/05/12 00:20:55;;;;;;;1.15;1.05;;;22.50;50.50;;;;;;5064086;28;20062;-64
2023/05/12 00:23:21;;;;;;;1.45;1.17;;;22.40;50.50;;;;;;5041571;28;20028;-64
2023/05/12 00:25:47;;;;;;;1.45;1.10;;;22.40;50.50;;;;;;5065023;28;20025;-62
2023/05/12 00:28:13;;;;;;;1.98;1.08;;;22.40;50.50;;;;;;5062587;28;20451;-63
2023/05/12 00:30:39;;;;;;;1.02;0.93;;;22.40;50.50;;;;;;5049518;28;20137;-65
2023/05/12 00:33:05;;;;;;;1.20;1.10;;;22.40;50.60;;;;;;5061588;28;20123;-66
2023/05/12 00:35:30;;;;;;;1.52;1.20;;;22.40;50.60;;;;;;5063792;28;20060;-66
2023/05/12 00:37:56;;;;;;;1.08;0.98;;;22.40;50.60;;;;;;5067390;28;20404;-64
2023/05/12 00:40:22;;;;;;;1.08;0.98;;;22.40;50.60;;;;;;5061026;28;20020;-64
2023/05/12 00:42:48;;;;;;;1.10;0.90;;;22.40;50.60;;;;;;5037983;28;20360;-66
2023/05/12 00:45:14;;;;;;;1.10;0.90;;;22.40;50.60;;;;;;5045051;28;20029;-64
2023/05/12 00:47:40;;;;;;;0.95;0.90;;;22.40;50.60;;;;;;5041715;28;20170;-66
2023/05/12 00:50:07;;;;;;;1.00;0.90;;;22.40;50.60;;;;;;5038997;28;20025;-67
2023/05/12 00:52:34;;;;;;;1.20;0.98;;;22.40;50.60;;;;;;5038881;28;20196;-63
2023/05/12 00:55:01;;;;;;;1.02;0.80;;;22.30;50.50;;;;;;5034691;28;20408;-65
2023/05/12 00:57:26;;;;;;;0.80;0.80;;;22.40;50.60;;;;;;5044057;28;20043;-66
2023/05/12 00:59:54;;;;;;;0.80;0.80;;;22.30;50.50;;;;;;5045645;28;20036;-64
2023/05/12 01:02:21;;;;;;;0.70;0.70;;;22.40;50.60;;;;;;5030460;28;20091;-63
2023/05/12 01:04:49;;;;;;;1.25;0.60;;;22.30;50.60;;;;;;5034867;28;20119;-65
2023/05/12 01:07:20;;;;;;;0.60;0.60;;;22.40;50.60;;;;;;5039692;28;20025;-62
2023/05/12 01:09:46;;;;;;;0.90;0.60;;;22.30;50.50;;;;;;5041584;28;20040;-64
2023/05/12 01:12:13;;;;;;;0.70;0.70;;;22.30;50.50;;;;;;5036006;28;20103;-65
2023/05/12 01:14:40;;;;;;;0.73;0.65;;;22.30;50.50;;;;;;5039630;28;20037;-67
2023/05/12 01:17:13;;;;;;;0.70;0.70;;;22.30;50.60;;;;;;5038241;28;20419;-63
2023/05/12 01:19:52;;;;;;;0.68;0.52;;;22.30;50.50;;;;;;5044548;28;20037;-64
2023/05/12 01:22:18;;;;;;;1.02;0.68;;;22.30;50.50;;;;;;5041965;28;20049;-64
2023/05/12 01:25:10;;;;;;;0.93;0.57;;;22.30;50.50;;;;;;5047403;28;20025;-68
2023/05/12 01:27:39;;;;;;;0.80;0.77;;;22.30;50.50;;;;;;5034606;28;20120;-62
2023/05/12 01:30:06;;;;;;;0.50;0.50;;;22.30;50.50;;;;;;5044834;28;20025;-66
2023/05/12 01:32:35;;;;;;;0.68;0.68;;;22.30;50.50;;;;;;5043655;28;20110;-62
2023/05/12 01:35:02;;;;;;;0.60;0.60;;;22.30;50.60;;;;;;5036910;28;20032;-62
2023/05/12 01:37:30;;;;;;;1.42;0.70;;;22.20;50.60;;;;;;5035398;28;20057;-63
2023/05/12 01:39:56;;;;;;;0.70;0.60;;;22.30;50.70;;;;;;5046134;28;20021;-64
2023/05/12 01:42:22;;;;;;;0.40;0.40;;;22.30;50.70;;;;;;5041279;28;20055;-64
2023/05/12 01:44:49;;;;;;;0.75;0.60;;;22.20;50.60;;;;;;5038393;28;20117;-63
2023/05/12 01:47:15;;;;;;;0.60;0.60;;;22.20;50.60;;;;;;5045293;28;20116;-66
2023/05/12 01:49:44;;;;;;;0.55;0.47;;;22.20;50.60;;;;;;5040802;28;20024;-63
2023/05/12 01:52:13;;;;;;;0.50;0.50;;;22.20;50.60;;;;;;5046716;28;20036;-64
2023/05/12 01:54:39;;;;;;;0.50;0.50;;;22.20;50.60;;;;;;5042427;28;20018;-63
2023/05/12 01:57:05;;;;;;;0.80;0.80;;;22.20;50.60;;;;;;5041049;28;20025;-65
2023/05/12 01:59:33;;;;;;;0.50;0.40;;;22.20;50.60;;;;;;5043227;28;20074;-64
2023/05/12 02:01:59;;;;;;;0.50;0.50;;;22.20;50.60;;;;;;5038369;28;20056;-64
2023/05/12 02:04:29;;;;;;;0.40;0.40;;;22.20;50.60;;;;;;5045774;28;20025;-67
2023/05/12 02:06:56;;;;;;;0.68;0.65;;;22.20;50.60;;;;;;5041664;28;20079;-65
2023/05/12 02:09:22;;;;;;;0.50;0.50;;;22.20;50.60;;;;;;5047947;28;20044;-62
2023/05/12 02:11:49;;;;;;;0.60;0.60;;;22.20;50.60;;;;;;5048654;28;20513;-67
2023/05/12 02:14:15;;;;;;;0.70;0.70;;;22.20;50.70;;;;;;5039974;28;20160;-63
2023/05/12 02:16:41;;;;;;;0.55;0.50;;;22.20;50.70;;;;;;5044794;28;20139;-63
2023/05/12 02:19:06;;;;;;;0.93;0.82;;;22.20;50.70;;;;;;5041701;28;20021;-65
2023/05/12 02:21:32;;;;;;;0.88;0.73;;;22.20;50.70;;;;;;5045143;28;20025;-67
2023/05/12 02:23:58;;;;;;;0.70;0.70;;;22.10;50.70;;;;;;5038243;28;20029;-65
2023/05/12 02:26:24;;;;;;;0.57;0.55;;;22.20;50.70;;;;;;5043037;28;20416;-66
2023/05/12 02:28:51;;;;;;;0.60;0.60;;;22.10;50.70;;;;;;5050260;28;20033;-63
2023/05/12 02:31:17;;;;;;;0.98;0.80;;;22.10;50.70;;;;;;5038719;28;20072;-65
2023/05/12 02:33:43;;;;;;;1.27;0.90;;;22.10;50.70;;;;;;5042571;28;20094;-64
2023/05/12 02:36:09;;;;;;;1.55;0.82;;;22.10;50.70;;;;;;5043407;28;20423;-63
2023/05/12 02:38:35;;;;;;;1.00;0.90;;;22.10;50.70;;;;;;5044666;28;20453;-63
2023/05/12 02:41:01;;;;;;;1.45;1.00;;;22.10;51.40;;;;;;5028094;28;20040;-62
2023/05/12 02:43:27;;;;;;;1.13;1.02;;;22.10;50.80;;;;;;5071319;28;20290;-62
2023/05/12 02:45:53;;;;;;;1.20;0.85;;;22.10;50.80;;;;;;5054629;28;20028;-66
2023/05/12 02:48:19;;;;;;;1.33;1.10;;;22.10;50.80;;;;;;5045015;28;20017;-65
2023/05/12 02:50:45;;;;;;;1.00;0.90;;;22.10;50.80;;;;;;5040494;28;20051;-64
2023/05/12 02:53:11;;;;;;;1.25;1.10;;;22.10;50.90;;;;;;5057323;28;20039;-65
2023/05/12 02:55:37;;;;;;;1.17;0.93;;;22.10;50.90;;;;;;5071188;28;20103;-65
2023/05/12 02:58:03;;;;;;;1.45;0.98;;;22.10;50.90;;;;;;5041508;28;20043;-66
2023/05/12 03:00:29;;;;;;;1.25;1.15;;;22.10;50.90;;;;;;5057204;28;20090;-66
2023/05/12 03:02:55;;;;;;;1.30;1.20;;;22.00;50.90;;;;;;5044842;28;20445;-65
2023/05/12 03:05:21;;;;;;;1.40;1.13;;;22.10;51.00;;;;;;5068921;28;20124;-60
2023/05/12 03:07:48;;;;;;;1.20;1.10;;;22.10;51.00;;;;;;5040800;28;20172;-61
2023/05/12 03:10:15;;;;;;;1.00;0.90;;;22.10;51.00;;;;;;5066817;28;20444;-64
2023/05/12 03:12:41;;;;;;;1.27;1.05;;;22.00;50.90;;;;;;5036856;28;20128;-65
2023/05/12 03:15:07;;;;;;;1.38;1.27;;;22.00;50.90;;;;;;5036878;28;20068;-64
2023/05/12 03:17:34;;;;;;;2.60;1.48;;;22.00;50.90;;;;;;5039218;28;20025;-65
2023/05/12 03:20:01;;;;;;;3.47;1.30;;;22.00;51.00;;;;;;5056831;28;20025;-63
2023/05/12 03:22:27;;;;;;;1.45;1.35;;;22.00;51.00;;;;;;5056692;28;20040;-65
2023/05/12 03:24:56;;;;;;;1.40;1.30;;;22.00;51.10;;;;;;5056511;28;20502;-62
2023/05/12 03:27:22;;;;;;;1.40;1.27;;;22.00;51.10;;;;;;5038926;28;20047;-65
2023/05/12 03:29:48;;;;;;;1.77;1.55;;;22.00;51.10;;;;;;5056026;28;20024;-65
2023/05/12 03:32:14;;;;;;;1.40;1.30;;;22.00;51.10;;;;;;5055449;28;20520;-62
2023/05/12 03:34:40;;;;;;;1.83;1.60;;;22.00;51.20;;;;;;5051541;28;20436;-61
2023/05/12 03:37:07;;;;;;;1.40;1.30;;;22.00;51.20;;;;;;5035979;28;20348;-62
2023/05/12 03:39:33;;;;;;;1.75;1.50;;;22.00;51.20;;;;;;5070601;28;20051;-62
2023/05/12 03:41:59;;;;;;;2.47;1.55;;;22.00;51.20;;;;;;5055722;28;20052;-65
2023/05/12 03:44:25;;;;;;;1.75;1.60;;;22.00;51.20;;;;;;5039463;28;20123;-63
2023/05/12 03:46:50;;;;;;;2.35;1.55;;;22.00;51.20;;;;;;5048234;28;20033;-65
2023/05/12 03:49:16;;;;;;;2.08;1.88;;;22.00;51.30;;;;;;5037646;28;20291;-62
2023/05/12 03:51:42;;;;;;;1.60;1.50;;;22.00;51.30;;;;;;5054035;28;20036;-65
2023/05/12 03:54:08;;;;;;;2.08;1.88;;;21.90;51.30;;;;;;5053781;28;20436;-64
2023/05/12 03:56:34;;;;;;;2.45;1.73;;;22.00;51.30;;;;;;5053194;28;20329;-64
2023/05/12 03:59:00;;;;;;;2.40;2.00;;;22.00;51.40;;;;;;5047950;28;20368;-62
2023/05/12 04:01:26;;;;;;;2.08;1.88;;;21.90;51.30;;;;;;5039596;28;20028;-65
2023/05/12 04:03:51;;;;;;;2.28;1.80;;;21.90;51.30;;;;;;5053542;28;20037;-65
2023/05/12 04:06:17;;;;;;;2.53;2.20;;;21.90;51.40;;;;;;5057113;28;20020;-64
2023/05/12 04:08:43;;;;;;;2.05;1.80;;;21.90;51.40;;;;;;5036721;28;20393;-63
2023/05/12 04:11:09;;;;;;;2.70;2.20;;;21.90;51.40;;;;;;5036063;28;20071;-63
2023/05/12 04:13:35;;;;;;;2.63;2.00;;;21.90;51.50;;;;;;5066225;28;20056;-60
2023/05/12 04:16:01;;;;;;;2.35;2.15;;;21.90;51.60;;;;;;5066795;28;20794;-64
2023/05/12 04:18:27;;;;;;;2.55;2.10;;;21.90;52.20;;;;;;5045858;28;20120;-63
2023/05/12 04:20:54;;;;;;;2.70;2.30;;;21.90;51.60;;;;;;5036620;28;20028;-64
2023/05/12 04:23:21;;;;;;;3.53;2.45;;;21.90;51.70;;;;;;5035331;28;20142;-65
2023/05/12 04:25:47;;;;;;;4.43;2.17;;;21.90;51.70;;;;;;5034927;28;20129;-61
2023/05/12 04:28:13;;;;;;;2.70;2.47;;;21.90;51.70;;;;;;5041414;28;20482;-64
2023/05/12 04:30:40;;;;;;;4.47;2.78;;;21.90;51.70;;;;;;5055599;28;20040;-63
2023/05/12 04:33:09;;;;;;;2.53;2.05;;;21.90;51.70;;;;;;5048984;28;20045;-64
2023/05/12 04:35:36;;;;;;;3.03;2.53;;;21.90;51.80;;;;;;5042783;28;20032;-62
2023/05/12 04:38:03;;;;;;;3.08;2.67;;;21.90;51.80;;;;;;5039492;28;20032;-65
2023/05/12 04:40:29;;;;;;;2.92;2.50;;;21.90;51.80;;;;;;5055330;28;20029;-65
2023/05/12 04:42:55;;;;;;;2.75;2.53;;;21.90;51.90;;;;;;5055120;28;20154;-68
2023/05/12 04:45:21;;;;;;;3.70;2.83;;;21.90;51.90;;;;;;5039184;28;20040;-66
2023/05/12 04:47:47;;;;;;;3.13;2.50;;;21.90;51.90;;;;;;5044563;28;20028;-62
2023/05/12 04:50:13;;;;;;;3.63;3.00;;;21.90;52.00;;;;;;5053380;28;20345;-66
2023/05/12 04:52:39;;;;;;;3.78;3.13;;;21.90;52.00;;;;;;5035245;28;20025;-65
2023/05/12 04:55:06;;;;;;;7.72;3.33;;;21.90;52.00;;;;;;5035047;28;20040;-63
2023/05/12 04:57:32;;;;;;;3.92;3.38;;;21.90;52.10;;;;;;5034372;28;20029;-65
2023/05/12 04:59:58;;;;;;;3.92;3.42;;;21.90;52.10;;;;;;5054713;28;20068;-66
2023/05/12 05:02:26;;;;;;;3.40;2.90;;;21.90;52.10;;;;;;5047928;28;20021;-63
2023/05/12 05:04:52;;;;;;;3.08;2.78;;;21.90;52.10;;;;;;5048858;28;20028;-62
2023/05/12 05:07:20;;;;;;;3.53;3.00;;;21.90;52.20;;;;;;5040138;28;20016;-64
2023/05/12 05:09:46;;;;;;;3.83;3.10;;;21.90;52.20;;;;;;5072486;28;20416;-64
2023/05/12 05:12:11;;;;;;;3.72;2.88;;;21.90;52.20;;;;;;5054909;28;20033;-65
2023/05/12 05:14:38;;;;;;;3.88;3.28;;;21.90;52.80;;;;;;5054267;28;20027;-62
2023/05/12 05:17:05;;;;;;;3.30;3.00;;;21.90;52.20;;;;;;5040236;28;20055;-62
2023/05/12 05:19:32;;;;;;;3.50;3.13;;;21.90;52.20;;;;;;5042315;28;20024;-62
2023/05/12 05:21:58;;;;;;;3.80;3.17;;;21.90;52.20;;;;;;5060316;28;20378;-61
2023/05/12 05:24:24;;;;;;;4.13;3.20;;;21.90;52.20;;;;;;5042824;28;20402;-65
2023/05/12 05:26:50;;;;;;;3.85;3.42;;;21.90;52.20;;;;;;5041614;28;20040;-62
2023/05/12 05:29:16;;;;;;;3.20;2.90;;;21.90;52.20;;;;;;5042885;28;20112;-64
2023/05/12 05:31:42;;;;;;;3.85;3.25;;;21.90;52.20;;;;;;5042663;28;20108;-63
2023/05/12 05:34:07;;;;;;;3.20;2.90;;;21.90;52.20;;;;;;5043012;28;20031;-62
2023/05/12 05:36:34;;;;;;;3.63;3.10;;;21.90;52.30;;;;;;5042393;28;20048;-65
2023/05/12 05:39:00;;;;;;;4.63;2.90;;;21.90;52.30;;;;;;5058789;28;20112;-64
2023/05/12 05:41:25;;;;;;;3.63;3.08;;;21.90;52.30;;;;;;5039142;28;20482;-65
2023/05/12 05:43:52;;;;;;;3.17;2.88;;;21.90;52.30;;;;;;5042113;28;20099;-63
2023/05/12 05:46:17;;;;;;;4.07;3.03;;;21.90;52.30;;;;;;5040698;28;20029;-64
2023/05/12 05:48:43;;;;;;;3.70;3.30;;;21.90;52.30;;;;;;5040290;28;20345;-63
2023/05/12 05:51:10;;;;;;;3.25;2.92;;;22.00;52.40;;;;;;5036133;28;20035;-65
2023/05/12 05:53:37;;;;;;;3.25;2.92;;;21.90;52.30;;;;;;5039593;28;20037;-63
2023/05/12 05:56:03;;;;;;;3.08;2.67;;;22.00;52.40;;;;;;5041376;28;20032;-64
2023/05/12 05:58:30;;;;;;;3.78;3.30;;;22.00;52.40;;;;;;5040685;28;20431;-63
2023/05/12 06:00:59;;;;;;;3.80;3.10;;;22.00;52.40;;;;;;5038493;28;20152;-62
2023/05/12 06:03:25;;;;;;;3.30;3.00;;;21.90;52.40;;;;;;5040493;28;20032;-64
2023/05/12 06:05:51;;;;;;;3.33;3.03;;;22.00;52.40;;;;;;5040012;28;20394;-65
2023/05/12 06:08:17;;;;;;;3.33;3.03;;;22.00;52.50;;;;;;5043680;28;20053;-64
2023/05/12 06:10:43;;;;;;;3.30;3.00;;;22.00;52.50;;;;;;5044572;28;20409;-62
2023/05/12 06:13:09;;;;;;;4.05;3.38;;;22.00;52.50;;;;;;5042062;28;20060;-64
2023/05/12 06:15:36;;;;;;;3.33;3.00;;;22.00;52.50;;;;;;5043346;28;20025;-65
2023/05/12 06:18:02;;;;;;;3.42;3.13;;;22.00;52.50;;;;;;5045553;28;20028;-65
2023/05/12 06:20:28;;;;;;;4.75;3.20;;;22.00;52.50;;;;;;5042710;28;20040;-66
2023/05/12 06:22:54;;;;;;;3.90;3.30;;;22.00;52.50;;;;;;5040633;28;20018;-69
2023/05/12 06:25:20;;;;;;;3.20;2.80;;;22.00;52.60;;;;;;5041616;28;20021;-65
2023/05/12 06:27:46;;;;;;;3.30;3.00;;;22.00;52.60;;;;;;5046603;28;20470;-65
2023/05/12 06:30:12;;;;;;;3.78;3.03;;;22.00;52.60;;;;;;5033588;28;20418;-63
2023/05/12 06:32:38;;;;;;;3.42;3.13;;;22.00;52.60;;;;;;5040154;28;20419;-63
2023/05/12 06:35:05;;;;;;;3.58;3.28;;;22.00;52.60;;;;;;5043227;28;20024;-64
2023/05/12 06:37:31;;;;;;;3.55;2.80;;;22.10;52.70;;;;;;5042947;28;20055;-64
2023/05/12 06:39:57;;;;;;;3.40;3.10;;;22.10;52.70;;;;;;5043021;28;20024;-63
2023/05/12 06:42:24;;;;;;;3.10;2.80;;;22.10;52.80;;;;;;5042992;28;20060;-63
2023/05/12 06:44:50;;;;;;;3.53;2.92;;;22.10;52.80;;;;;;5039392;28;20041;-64
2023/05/12 06:47:19;;;;;;;5.20;3.10;;;22.10;52.80;;;;;;5039834;28;20087;-66
2023/05/12 06:49:45;;;;;;;3.67;2.80;;;22.10;52.80;;;;;;5044398;28;20344;-63
2023/05/12 06:52:15;;;;;;;3.60;3.22;;;22.10;53.00;;;;;;5041127;28;20032;-64
2023/05/12 06:54:42;;;;;;;4.93;3.10;;;22.10;53.10;;;;;;5042611;28;20033;-64
2023/05/12 06:57:08;;;;;;;3.65;3.15;;;22.10;53.10;;;;;;5041580;28;20175;-65
2023/05/12 06:59:34;;;;;;;3.92;3.47;;;22.20;53.10;;;;;;5035975;28;20025;-62
2023/05/12 07:02:00;;;;;;;3.58;3.25;;;22.20;53.00;;;;;;5036220;28;20017;-65
2023/05/12 07:04:26;;;;;;;3.92;3.05;;;22.20;53.00;;;;;;5038542;28;20025;-63
2023/05/12 07:06:52;;;;;;;3.83;3.00;;;22.20;53.00;;;;;;5033384;28;20112;-67
2023/05/12 07:09:18;;;;;;;4.15;3.28;;;22.20;53.00;;;;;;5036226;28;20045;-65
2023/05/12 07:11:44;;;;;;;4.03;2.95;;;22.20;53.00;;;;;;5038810;28;20108;-64
2023/05/12 07:14:10;;;;;;;3.65;3.30;;;22.20;52.90;;;;;;5041680;28;20083;-65
2023/05/12 07:16:36;;;;;;;3.53;2.90;;;22.20;53.00;;;;;;5045838;28;20440;-66
2023/05/12 07:19:04;;;;;;;3.58;3.10;;;22.30;53.00;;;;;;5040577;28;20021;-63
2023/05/12 07:21:30;;;;;;;3.90;3.10;;;22.30;53.10;;;;;;5040864;28;20041;-64
2023/05/12 07:23:56;;;;;;;3.00;2.70;;;22.30;53.10;;;;;;5038668;28;20113;-63
2023/05/12 07:26:23;;;;;;;3.47;2.70;;;22.30;53.10;;;;;;5045584;28;20052;-66
2023/05/12 07:28:51;;;;;;;2.75;2.42;;;22.30;53.10;;;;;;5046606;28;20036;-63
2023/05/12 07:31:19;;;;;;;2.55;2.15;;;22.30;53.10;;;;;;5047561;28;20025;-65
2023/05/12 07:33:45;;;;;;;2.92;2.50;;;22.30;53.00;;;;;;5040816;28;20044;-62
2023/05/12 07:36:10;;;;;;;3.55;2.90;;;22.30;52.90;;;;;;5041047;28;20144;-64
2023/05/12 07:38:36;;;;;;;3.35;2.90;;;22.30;52.70;;;;;;5043858;28;20090;-63
2023/05/12 07:41:02;;;;;;;3.22;2.70;;;22.30;52.60;;;;;;5039013;28;20404;-65
2023/05/12 07:43:28;;;;;;;3.05;2.53;;;22.30;52.60;;;;;;5059589;28;20029;-63
2023/05/12 07:45:55;;;;;;;2.78;2.53;;;22.30;52.50;;;;;;5058876;28;20111;-63
2023/05/12 07:48:21;;;;;;;2.80;2.47;;;22.30;52.40;;;;;;5061015;28;20043;-65
2023/05/12 07:50:47;;;;;;;3.35;2.40;;;22.40;52.40;;;;;;5061410;28;20066;-63
2023/05/12 07:53:14;;;;;;;2.30;2.10;;;22.40;52.30;;;;;;5057184;28;20025;-70
2023/05/12 07:55:42;;;;;;;3.22;2.50;;;22.40;52.30;;;;;;5061884;28;20025;-69
2023/05/12 07:58:10;;;;;;;3.15;2.63;;;22.40;52.20;;;;;;5063990;28;20035;-66
2023/05/12 08:00:36;;;;;;;2.58;2.20;;;22.40;52.00;;;;;;5063286;28;20086;-67
2023/05/12 08:03:04;;;;;;;2.33;2.00;;;22.50;51.90;;;;;;5061270;28;20028;-67
2023/05/12 08:05:30;;;;;;;2.67;2.05;;;22.60;51.80;;;;;;5043454;28;20094;-66
2023/05/12 08:07:57;;;;;;;1.98;1.60;;;22.70;51.60;;;;;;5060661;28;20037;-68
2023/05/12 08:10:26;;;;;;;2.42;1.58;;;22.70;51.40;;;;;;5026093;28;20032;-66
2023/05/12 08:12:55;;;;;;;2.35;1.85;;;22.80;51.20;;;;;;5055468;28;20139;-64
2023/05/12 08:15:21;;;;;;;1.88;1.70;;;22.90;51.00;;;;;;5053514;28;20048;-65
2023/05/12 08:17:47;;;;;;;1.85;1.67;;;22.90;50.80;;;;;;5057487;28;20509;-68
2023/05/12 08:20:12;;;;;;;1.75;1.63;;;23.00;50.60;;;;;;5063290;28;20043;-69
2023/05/12 08:22:38;;;;;;;1.95;1.75;;;23.10;51.10;;;;;;5064110;28;20134;-67
2023/05/12 08:25:05;;;;;;;2.55;1.88;;;23.20;50.30;;;;;;5059888;28;20047;-63
2023/05/12 08:27:31;;;;;;;2.10;1.90;;;23.20;50.10;;;;;;5043846;28;20029;-66
2023/05/12 08:29:57;;;;;;;1.70;1.60;;;23.20;50.00;;;;;;5039803;28;20408;-64
2023/05/12 08:32:24;;;;;;;2.70;1.48;;;23.30;49.80;;;;;;5061728;28;20134;-67
2023/05/12 08:34:50;;;;;;;2.05;1.55;;;23.30;49.60;;;;;;5042408;28;20025;-68
2023/05/12 08:37:16;;;;;;;1.85;1.50;;;23.40;49.50;;;;;;5062255;28;20035;-68
2023/05/12 08:39:42;;;;;;;2.67;1.60;;;23.40;49.40;;;;;;5059747;28;20021;-66
2023/05/12 08:42:38;;;;;;;1.35;1.25;;;23.50;49.30;;;;;;5059172;28;20041;-69
2023/05/12 08:45:05;;;;;;;1.48;1.25;;;23.50;49.00;;;;;;5060387;28;20040;-66
2023/05/12 08:47:33;;;;;;;1.70;1.50;;;23.60;48.90;;;;;;5042360;28;20025;-64
2023/05/12 08:50:00;;;;;;;1.13;1.02;;;23.60;48.80;;;;;;5061666;28;20067;-69
2023/05/12 08:52:31;;;;;;;1.48;1.38;;;23.60;48.50;;;;;;5062014;28;20048;-65
2023/05/12 08:55:00;;;;;;;1.63;1.10;;;23.70;48.40;;;;;;5037500;28;20325;-64
2023/05/12 08:57:26;;;;;;;1.40;1.30;;;23.70;48.20;;;;;;5062613;28;20029;-67
2023/05/12 09:00:00;;;;;;;1.20;1.10;;;23.70;48.10;;;;;;5061876;28;20047;-68
2023/05/12 09:02:29;;;;;;;1.60;1.42;;;23.80;47.80;;;;;;5034071;28;20141;-68
2023/05/12 09:04:57;;;;;;;2.72;1.20;;;23.80;47.70;;;;;;5058689;28;20076;-69
2023/05/12 09:07:26;;;;;;;2.20;1.10;;;23.80;47.60;;;;;;5042900;28;20056;-65
2023/05/12 09:09:56;;;;;;;1.63;1.00;;;23.80;47.40;;;;;;5039769;28;20128;-68
2023/05/12 09:12:25;;;;;;;0.80;0.80;;;23.90;47.30;;;;;;5055575;28;20040;-67
2023/05/12 09:15:02;;;;;;;1.17;1.08;;;23.90;47.20;;;;;;5042947;28;20128;-68
2023/05/12 09:17:28;;;;;;;1.27;1.15;;;24.00;47.10;;;;;;5055264;28;20096;-67
2023/05/12 09:19:54;;;;;;;1.50;1.30;;;24.00;47.10;;;;;;5062508;28;20408;-68
2023/05/12 09:22:28;;;;;;;1.35;1.20;;;24.00;47.00;;;;;;5062677;28;20074;-66
2023/05/12 09:25:01;;;;;;;1.25;0.93;;;24.10;47.00;;;;;;5057233;28;20048;-68
2023/05/12 09:27:28;;;;;;;1.13;0.95;;;24.10;46.90;;;;;;5057607;28;20029;-67
2023/05/12 09:29:55;;;;;;;1.10;0.98;;;24.10;46.80;;;;;;5058032;28;20093;-64
2023/05/12 09:32:34;;;;;;;2.28;1.30;;;24.10;46.80;;;;;;5039723;28;20122;-67
2023/05/12 09:35:10;;;;;;;1.55;1.33;;;24.10;46.70;;;;;;5057006;28;20112;-67
2023/05/12 09:37:38;;;;;;;1.20;1.10;;;24.20;46.80;;;;;;5042492;28;20457;-65
2023/05/12 09:40:06;;;;;;;1.20;1.10;;;24.20;46.80;;;;;;5061410;28;20082;-66
2023/05/12 09:42:34;;;;;;;1.35;1.25;;;24.20;47.00;;;;;;5047841;28;20383;-69
2023/05/12 09:45:05;;;;;;;1.80;1.17;;;24.20;47.00;;;;;;5048060;28;20427;-67
2023/05/12 09:47:37;;;;;;;2.60;1.13;;;24.30;47.10;;;;;;5060450;28;20047;-66
2023/05/12 09:50:05;;;;;;;1.20;1.10;;;24.30;47.10;;;;;;5044602;28;20053;-66
2023/05/12 09:52:41;;;;;;;1.75;1.30;;;24.40;47.10;;;;;;5044764;28;20383;-66
2023/05/12 09:55:12;;;;;;;1.33;1.00;;;24.40;47.00;;;;;;5045333;28;20356;-68
2023/05/12 09:57:45;;;;;;;1.20;1.10;;;24.50;47.00;;;;;;5061796;28;20053;-68
2023/05/12 10:00:16;;;;;;;1.35;0.90;;;24.50;46.90;;;;;;5063582;28;20108;-67
2023/05/12 10:02:47;;;;;;;3.58;1.20;;;24.60;46.80;;;;;;5065372;28;20047;-69
2023/05/12 10:05:18;;;;;;;1.98;1.20;;;24.60;46.80;;;;;;5041796;28;20025;-66
2023/05/12 10:07:52;;;;;;;1.20;1.10;;;24.60;46.70;;;;;;5048752;28;20063;-68
2023/05/12 10:10:25;;;;;;;2.53;1.10;;;24.70;46.60;;;;;;5045664;28;20477;-65
2023/05/12 10:12:52;;;;;;;1.77;1.33;;;24.70;46.40;;;;;;5067788;28;20033;-67
2023/05/12 10:15:20;;;;;;;1.25;1.10;;;24.80;46.40;;;;;;5062048;28;20065;-70
2023/05/12 10:17:49;;;;;;;1.55;1.00;;;24.80;46.30;;;;;;5062358;28;20393;-71
2023/05/12 10:20:18;;;;;;;0.90;0.82;;;24.90;46.20;;;;;;5065278;28;20029;-66
2023/05/12 10:22:45;;;;;;;1.00;0.90;;;24.90;46.00;;;;;;5044678;28;20029;-69
2023/05/12 10:25:12;;;;;;;0.85;0.85;;;24.90;45.80;;;;;;5064682;28;20021;-68
2023/05/12 10:27:39;;;;;;;0.82;0.80;;;24.90;45.60;;;;;;5060706;28;20415;-67
2023/05/12 10:30:06;;;;;;;0.80;0.80;;;24.90;45.50;;;;;;5059171;28;20036;-67
2023/05/12 10:32:32;;;;;;;1.02;0.80;;;24.90;45.40;;;;;;5053968;28;20113;-71
2023/05/12 10:35:09;;;;;;;0.77;0.77;;;25.00;45.20;;;;;;5058404;28;20041;-64
2023/05/12 10:37:36;;;;;;;1.17;1.08;;;25.00;45.10;;;;;;5042640;28;20098;-65
2023/05/12 10:40:03;;;;;;;1.23;0.80;;;25.00;45.00;;;;;;5057865;28;20029;-68
2023/05/12 10:42:41;;;;;;;1.17;0.82;;;25.00;44.90;;;;;;5057015;28;20127;-65
2023/05/12 10:45:18;;;;;;;1.50;0.95;;;25.00;44.80;;;;;;5036111;28;20028;-69
2023/05/12 10:47:45;;;;;;;0.77;0.77;;;25.00;44.70;;;;;;5057377;28;20029;-65
2023/05/12 10:50:15;;;;;;;1.30;1.20;;;25.00;44.70;;;;;;5058397;28;20025;-65
2023/05/12 10:53:01;;;;;;;1.30;0.90;;;25.00;44.50;;;;;;5021172;28;20043;-68
2023/05/12 10:55:41;;;;;;;1.10;1.00;;;24.90;44.40;;;;;;5056028;28;20068;-69
2023/05/12 10:58:11;;;;;;;1.02;0.80;;;24.90;44.40;;;;;;5055306;28;20043;-72
2023/05/12 11:00:49;;;;;;;1.20;0.80;;;25.00;44.40;;;;;;5057164;28;20104;-70
2023/05/12 11:03:16;;;;;;;0.85;0.80;;;25.00;44.30;;;;;;5057945;28;20020;-65
2023/05/12 11:05:45;;;;;;;0.88;0.88;;;25.00;44.30;;;;;;5054551;28;20039;-66
2023/05/12 11:08:11;;;;;;;0.93;0.80;;;25.00;44.20;;;;;;5035455;28;20388;-67
2023/05/12 11:10:41;;;;;;;0.82;0.70;;;25.00;44.20;;;;;;5062222;28;20035;-67
2023/05/12 11:13:07;;;;;;;0.80;0.70;;;25.00;44.10;;;;;;5058749;28;20048;-64
2023/05/12 11:15:33;;;;;;;1.05;0.88;;;25.00;44.10;;;;;;5036175;28;20028;-69
2023/05/12 11:18:01;;;;;;;0.63;0.63;;;25.00;44.00;;;;;;5054711;28;20048;-69
2023/05/12 11:20:27;;;;;;;1.00;0.90;;;25.00;43.90;;;;;;5022597;28;20067;-68
2023/05/12 11:22:53;;;;;;;1.10;1.00;;;25.00;43.90;;;;;;5034001;28;20048;-64
2023/05/12 11:25:19;;;;;;;1.13;0.85;;;25.00;43.90;;;;;;5055663;28;21089;-64
2023/05/12 11:27:48;;;;;;;3.15;0.93;;;25.00;43.90;;;;;;5035812;28;20041;-68
2023/05/12 11:30:15;;;;;;;3.03;1.15;;;25.10;44.00;;;;;;5053436;28;20033;-67
2023/05/12 11:32:42;;;;;;;1.52;1.00;;;25.10;44.10;;;;;;5054413;28;20041;-68
2023/05/12 11:35:14;;;;;;;0.77;0.77;;;25.20;44.10;;;;;;5054746;28;20028;-69
2023/05/12 11:37:42;;;;;;;1.30;0.85;;;25.20;44.10;;;;;;5037720;28;20045;-66
2023/05/12 11:40:19;;;;;;;1.30;0.90;;;25.30;44.20;;;;;;5037532;28;20520;-64
2023/05/12 11:42:47;;;;;;;3.05;1.13;;;25.30;44.10;;;;;;5056541;28;20049;-67
2023/05/12 11:45:28;;;;;;;1.45;1.00;;;25.30;44.10;;;;;;5059625;28;20033;-65
2023/05/12 11:48:15;;;;;;;2.15;1.10;;;25.30;44.00;;;;;;5060859;28;20025;-67
2023/05/12 11:50:48;;;;;;;1.10;0.90;;;25.40;44.10;;;;;;5058752;28;20029;-66
2023/05/12 11:53:18;;;;;;;1.65;1.10;;;25.40;44.00;;;;;;5043364;28;20146;-67
2023/05/12 11:55:51;;;;;;;0.90;0.90;;;25.50;44.00;;;;;;5065046;28;20360;-67
2023/05/12 11:58:25;;;;;;;3.33;0.95;;;25.50;43.90;;;;;;5025323;28;20098;-67
2023/05/12 12:00:51;;;;;;;1.02;1.00;;;25.50;43.80;;;;;;5042430;28;20036;-65
2023/05/12 12:03:18;;;;;;;1.30;1.20;;;25.60;43.80;;;;;;5056701;28;20024;-64
2023/05/12 12:05:56;;;;;;;1.27;1.05;;;25.60;43.70;;;;;;5039365;28;20025;-68
2023/05/12 12:08:23;;;;;;;1.15;0.90;;;25.60;43.60;;;;;;5060555;28;20052;-64
2023/05/12 12:10:49;;;;;;;1.30;1.10;;;25.70;43.60;;;;;;5060585;28;20024;-66
2023/05/12 12:13:23;;;;;;;1.75;1.20;;;25.70;43.60;;;;;;5043203;28;20039;-67
2023/05/12 12:15:49;;;;;;;;;;;25.70;43.50;;;;;;5039421;28;20456;-67
2023/05/12 12:18:15;;;;;;;1.05;0.90;;;25.70;43.50;;;;;;5052501;28;19908;-67
2023/05/12 12:20:42;;;;;;;1.70;1.10;;;25.70;43.50;;;;;;5062520;28;20027;-68
2023/05/12 12:23:08;;;;;;;1.10;1.00;;;25.80;43.40;;;;;;5058345;28;20107;-67
2023/05/12 12:25:34;;;;;;;1.60;1.00;;;25.80;43.10;;;;;;5064313;28;20075;-67
2023/05/12 12:28:03;;;;;;;1.17;0.90;;;25.80;42.90;;;;;;5064735;28;20040;-67
2023/05/12 12:30:29;;;;;;;2.22;0.90;;;25.90;42.80;;;;;;5059771;28;20043;-63
2023/05/12 12:32:55;;;;;;;0.82;0.70;;;25.90;42.60;;;;;;5054233;28;20031;-64
2023/05/12 12:35:23;;;;;;;1.52;1.13;;;25.90;42.50;;;;;;5059087;28;20036;-64
2023/05/12 12:37:50;;;;;;;2.95;0.80;;;25.90;42.40;;;;;;5040938;28;20051;-65
2023/05/12 12:40:17;;;;;;;1.42;1.00;;;25.90;42.40;;;;;;5062053;28;20292;-64
2023/05/12 12:42:43;;;;;;;1.15;0.98;;;25.90;42.30;;;;;;5055284;28;20071;-63
2023/05/12 12:45:10;;;;;;;1.88;1.27;;;26.00;42.30;;;;;;5055614;28;20025;-65
2023/05/12 12:47:37;;;;;;;1.48;0.90;;;25.90;42.20;;;;;;5053341;28;20033;-64
2023/05/12 12:50:08;;;;;;;1.73;1.30;;;26.00;42.20;;;;;;5054390;28;20436;-68